sensor_id;sensor_type;location;lat;lon;timestamp;P1;durP1;ratioP1;P2;durP2;ratioP2
53391;SDS011;41667;51.922;8.850;2022-11-20T00:00:21;13.10;;;6.53;;
53391;SDS011;41667;51.922;8.850;2022-11-20T00:02:46;14.18;;;7.80;;
53391;SDS011;41667;51.922;8.850;2022-11-20T00:05:11;13.20;;;8.23;;
53391;SDS011;41667;51.922;8.850;2022-11-20T00:07:37;24.52;;;11.35;;
53391;SDS011;41667;51.922;8.850;2022-11-20T00:10:02;25.57;;;12.13;;
53391;SDS011;41667;51.922;8.850;2022-11-20T00:12:27;13.55;;;7.13;;
53391;SDS011;41667;51.922;8.850;2022-11-20T00:14:52;8.57;;;5.72;;
53391;SDS011;41667;51.922;8.850;2022-11-20T00:17:17;10.23;;;7.32;;
53391;SDS011;41667;51.922;8.850;2022-11-20T00:19:42;16.52;;;7.55;;
53391;SDS011;41667;51.922;8.850;2022-11-20T00:22:08;13.07;;;8.17;;
53391;SDS011;41667;51.922;8.850;2022-11-20T00:24:33;11.15;;;7.53;;
53391;SDS011;41667;51.922;8.850;2022-11-20T00:26:58;13.48;;;7.38;;
53391;SDS011;41667;51.922;8.850;2022-11-20T00:29:23;8.63;;;6.20;;
53391;SDS011;41667;51.922;8.850;2022-11-20T00:31:48;9.20;;;6.50;;
53391;SDS011;41667;51.922;8.850;2022-11-20T00:34:13;8.68;;;5.65;;
53391;SDS011;41667;51.922;8.850;2022-11-20T00:36:38;11.10;;;6.38;;
53391;SDS011;41667;51.922;8.850;2022-11-20T00:39:04;10.48;;;6.45;;
53391;SDS011;41667;51.922;8.850;2022-11-20T00:41:29;9.80;;;7.10;;
53391;SDS011;41667;51.922;8.850;2022-11-20T00:43:54;6.40;;;5.38;;
53391;SDS011;41667;51.922;8.850;2022-11-20T00:46:21;9.63;;;5.43;;
53391;SDS011;41667;51.922;8.850;2022-11-20T00:48:47;6.65;;;5.03;;
53391;SDS011;41667;51.922;8.850;2022-11-20T00:51:16;8.48;;;5.25;;
53391;SDS011;41667;51.922;8.850;2022-11-20T00:53:41;10.63;;;5.28;;
53391;SDS011;41667;51.922;8.850;2022-11-20T00:56:07;10.57;;;4.72;;
53391;SDS011;41667;51.922;8.850;2022-11-20T00:58:35;7.07;;;5.10;;
53391;SDS011;41667;51.922;8.850;2022-11-20T01:01:01;7.40;;;4.15;;
53391;SDS011;41667;51.922;8.850;2022-11-20T01:03:27;6.63;;;5.93;;
53391;SDS011;41667;51.922;8.850;2022-11-20T01:05:52;7.80;;;5.85;;
53391;SDS011;41667;51.922;8.850;2022-11-20T01:08:17;10.53;;;6.17;;
53391;SDS011;41667;51.922;8.850;2022-11-20T01:10:42;9.48;;;6.32;;
53391;SDS011;41667;51.922;8.850;2022-11-20T01:13:07;6.47;;;5.10;;
53391;SDS011;41667;51.922;8.850;2022-11-20T01:15:51;8.77;;;4.63;;
53391;SDS011;41667;51.922;8.850;2022-11-20T01:18:16;5.90;;;3.97;;
53391;SDS011;41667;51.922;8.850;2022-11-20T01:20:42;7.80;;;4.70;;
53391;SDS011;41667;51.922;8.850;2022-11-20T01:23:07;9.48;;;5.50;;
53391;SDS011;41667;51.922;8.850;2022-11-20T01:25:32;8.55;;;4.63;;
53391;SDS011;41667;51.922;8.850;2022-11-20T01:27:58;6.80;;;4.45;;
53391;SDS011;41667;51.922;8.850;2022-11-20T01:30:24;6.78;;;5.15;;
53391;SDS011;41667;51.922;8.850;2022-11-20T01:32:49;9.40;;;5.97;;
53391;SDS011;41667;51.922;8.850;2022-11-20T01:35:14;8.00;;;5.90;;
53391;SDS011;41667;51.922;8.850;2022-11-20T01:37:39;8.15;;;5.20;;
53391;SDS011;41667;51.922;8.850;2022-11-20T01:40:05;9.93;;;5.35;;
53391;SDS011;41667;51.922;8.850;2022-11-20T01:42:30;10.77;;;5.10;;
53391;SDS011;41667;51.922;8.850;2022-11-20T01:47:58;10.15;;;5.50;;
53391;SDS011;41667;51.922;8.850;2022-11-20T01:50:26;6.50;;;4.67;;
53391;SDS011;41667;51.922;8.850;2022-11-20T01:52:58;6.60;;;4.78;;
53391;SDS011;41667;51.922;8.850;2022-11-20T01:55:28;9.70;;;4.65;;
53391;SDS011;41667;51.922;8.850;2022-11-20T01:57:54;6.05;;;4.53;;
53391;SDS011;41667;51.922;8.850;2022-11-20T02:00:20;8.40;;;4.43;;
53391;SDS011;41667;51.922;8.850;2022-11-20T02:02:47;6.13;;;4.18;;
53391;SDS011;41667;51.922;8.850;2022-11-20T02:05:21;5.22;;;3.90;;
53391;SDS011;41667;51.922;8.850;2022-11-20T02:07:47;5.57;;;4.13;;
53391;SDS011;41667;51.922;8.850;2022-11-20T02:10:13;5.68;;;3.80;;
53391;SDS011;41667;51.922;8.850;2022-11-20T02:12:39;6.53;;;4.13;;
53391;SDS011;41667;51.922;8.850;2022-11-20T02:15:22;4.72;;;4.22;;
53391;SDS011;41667;51.922;8.850;2022-11-20T02:17:48;5.72;;;4.63;;
53391;SDS011;41667;51.922;8.850;2022-11-20T02:20:13;5.47;;;4.35;;
53391;SDS011;41667;51.922;8.850;2022-11-20T02:22:41;9.17;;;4.73;;
53391;SDS011;41667;51.922;8.850;2022-11-20T02:25:11;4.90;;;3.93;;
53391;SDS011;41667;51.922;8.850;2022-11-20T02:27:37;6.95;;;4.50;;
53391;SDS011;41667;51.922;8.850;2022-11-20T02:30:03;4.03;;;3.10;;
53391;SDS011;41667;51.922;8.850;2022-11-20T02:34:54;5.03;;;3.58;;
53391;SDS011;41667;51.922;8.850;2022-11-20T02:37:19;4.83;;;2.83;;
53391;SDS011;41667;51.922;8.850;2022-11-20T02:39:45;5.18;;;3.40;;
53391;SDS011;41667;51.922;8.850;2022-11-20T02:42:11;4.00;;;3.00;;
53391;SDS011;41667;51.922;8.850;2022-11-20T02:44:36;3.97;;;2.97;;
53391;SDS011;41667;51.922;8.850;2022-11-20T02:47:01;1.97;;;1.87;;
53391;SDS011;41667;51.922;8.850;2022-11-20T02:49:26;3.03;;;2.63;;
53391;SDS011;41667;51.922;8.850;2022-11-20T02:51:52;4.23;;;3.13;;
53391;SDS011;41667;51.922;8.850;2022-11-20T02:54:17;3.92;;;3.03;;
53391;SDS011;41667;51.922;8.850;2022-11-20T02:56:42;4.87;;;3.63;;
53391;SDS011;41667;51.922;8.850;2022-11-20T02:59:08;4.40;;;3.10;;
53391;SDS011;41667;51.922;8.850;2022-11-20T03:01:33;3.83;;;3.28;;
53391;SDS011;41667;51.922;8.850;2022-11-20T03:03:58;3.63;;;3.33;;
53391;SDS011;41667;51.922;8.850;2022-11-20T03:06:23;4.70;;;3.55;;
53391;SDS011;41667;51.922;8.850;2022-11-20T03:08:49;4.40;;;2.83;;
53391;SDS011;41667;51.922;8.850;2022-11-20T03:11:14;3.90;;;2.90;;
53391;SDS011;41667;51.922;8.850;2022-11-20T03:13:39;4.97;;;3.70;;
53391;SDS011;41667;51.922;8.850;2022-11-20T03:16:08;5.05;;;3.08;;
53391;SDS011;41667;51.922;8.850;2022-11-20T03:18:34;3.63;;;2.92;;
53391;SDS011;41667;51.922;8.850;2022-11-20T03:20:59;6.10;;;3.47;;
53391;SDS011;41667;51.922;8.850;2022-11-20T03:23:24;3.72;;;3.22;;
53391;SDS011;41667;51.922;8.850;2022-11-20T03:25:49;3.88;;;3.45;;
53391;SDS011;41667;51.922;8.850;2022-11-20T03:28:15;8.03;;;4.43;;
53391;SDS011;41667;51.922;8.850;2022-11-20T03:30:40;6.07;;;4.00;;
53391;SDS011;41667;51.922;8.850;2022-11-20T03:33:05;5.55;;;4.00;;
53391;SDS011;41667;51.922;8.850;2022-11-20T03:35:31;5.30;;;3.77;;
53391;SDS011;41667;51.922;8.850;2022-11-20T03:37:56;5.70;;;4.13;;
53391;SDS011;41667;51.922;8.850;2022-11-20T03:40:22;5.85;;;4.45;;
53391;SDS011;41667;51.922;8.850;2022-11-20T03:42:47;5.45;;;3.75;;
53391;SDS011;41667;51.922;8.850;2022-11-20T03:45:13;9.23;;;4.57;;
53391;SDS011;41667;51.922;8.850;2022-11-20T03:47:38;5.70;;;4.05;;
53391;SDS011;41667;51.922;8.850;2022-11-20T03:50:03;4.22;;;3.67;;
53391;SDS011;41667;51.922;8.850;2022-11-20T03:52:29;6.53;;;4.25;;
53391;SDS011;41667;51.922;8.850;2022-11-20T03:54:54;7.90;;;5.70;;
53391;SDS011;41667;51.922;8.850;2022-11-20T03:57:19;4.93;;;4.13;;
53391;SDS011;41667;51.922;8.850;2022-11-20T03:59:44;7.87;;;4.63;;
53391;SDS011;41667;51.922;8.850;2022-11-20T04:02:09;6.30;;;4.50;;
53391;SDS011;41667;51.922;8.850;2022-11-20T04:04:34;7.20;;;4.33;;
53391;SDS011;41667;51.922;8.850;2022-11-20T04:07:00;6.75;;;4.32;;
53391;SDS011;41667;51.922;8.850;2022-11-20T04:09:25;7.07;;;4.82;;
53391;SDS011;41667;51.922;8.850;2022-11-20T04:11:50;5.83;;;4.03;;
53391;SDS011;41667;51.922;8.850;2022-11-20T04:14:15;4.20;;;3.80;;
53391;SDS011;41667;51.922;8.850;2022-11-20T04:16:41;9.20;;;5.05;;
53391;SDS011;41667;51.922;8.850;2022-11-20T04:19:09;8.05;;;5.07;;
53391;SDS011;41667;51.922;8.850;2022-11-20T04:21:34;8.70;;;5.03;;
53391;SDS011;41667;51.922;8.850;2022-11-20T04:24:00;6.83;;;5.43;;
53391;SDS011;41667;51.922;8.850;2022-11-20T04:26:28;8.38;;;5.22;;
53391;SDS011;41667;51.922;8.850;2022-11-20T04:28:54;11.00;;;5.18;;
53391;SDS011;41667;51.922;8.850;2022-11-20T04:31:21;10.20;;;6.07;;
53391;SDS011;41667;51.922;8.850;2022-11-20T04:33:46;8.07;;;5.25;;
53391;SDS011;41667;51.922;8.850;2022-11-20T04:36:13;7.40;;;6.00;;
53391;SDS011;41667;51.922;8.850;2022-11-20T04:38:38;9.60;;;6.53;;
53391;SDS011;41667;51.922;8.850;2022-11-20T04:41:05;5.82;;;5.20;;
53391;SDS011;41667;51.922;8.850;2022-11-20T04:43:30;8.25;;;5.45;;
53391;SDS011;41667;51.922;8.850;2022-11-20T04:45:57;6.47;;;4.65;;
53391;SDS011;41667;51.922;8.850;2022-11-20T04:48:22;10.20;;;5.18;;
53391;SDS011;41667;51.922;8.850;2022-11-20T04:50:48;6.07;;;4.63;;
53391;SDS011;41667;51.922;8.850;2022-11-20T04:53:13;9.50;;;5.63;;
53391;SDS011;41667;51.922;8.850;2022-11-20T04:55:38;7.43;;;4.95;;
53391;SDS011;41667;51.922;8.850;2022-11-20T04:58:03;7.63;;;4.53;;
53391;SDS011;41667;51.922;8.850;2022-11-20T05:00:29;8.30;;;4.67;;
53391;SDS011;41667;51.922;8.850;2022-11-20T05:02:54;8.90;;;5.00;;
53391;SDS011;41667;51.922;8.850;2022-11-20T05:05:19;4.63;;;4.23;;
53391;SDS011;41667;51.922;8.850;2022-11-20T05:07:44;9.00;;;4.83;;
53391;SDS011;41667;51.922;8.850;2022-11-20T05:10:09;10.27;;;5.80;;
53391;SDS011;41667;51.922;8.850;2022-11-20T05:12:34;8.57;;;5.90;;
53391;SDS011;41667;51.922;8.850;2022-11-20T05:14:59;8.73;;;4.80;;
53391;SDS011;41667;51.922;8.850;2022-11-20T05:17:25;6.50;;;4.32;;
53391;SDS011;41667;51.922;8.850;2022-11-20T05:19:50;5.13;;;4.13;;
53391;SDS011;41667;51.922;8.850;2022-11-20T05:22:15;7.80;;;5.07;;
53391;SDS011;41667;51.922;8.850;2022-11-20T05:24:40;5.97;;;5.17;;
53391;SDS011;41667;51.922;8.850;2022-11-20T05:27:05;7.53;;;5.60;;
53391;SDS011;41667;51.922;8.850;2022-11-20T05:29:30;9.80;;;5.88;;
53391;SDS011;41667;51.922;8.850;2022-11-20T05:31:56;5.68;;;4.68;;
53391;SDS011;41667;51.922;8.850;2022-11-20T05:34:21;6.53;;;5.20;;
53391;SDS011;41667;51.922;8.850;2022-11-20T05:36:46;5.68;;;5.05;;
53391;SDS011;41667;51.922;8.850;2022-11-20T05:39:11;10.50;;;6.93;;
53391;SDS011;41667;51.922;8.850;2022-11-20T05:41:36;8.20;;;5.23;;
53391;SDS011;41667;51.922;8.850;2022-11-20T05:44:01;7.90;;;5.45;;
53391;SDS011;41667;51.922;8.850;2022-11-20T05:46:27;7.20;;;4.63;;
53391;SDS011;41667;51.922;8.850;2022-11-20T05:48:52;5.67;;;5.13;;
53391;SDS011;41667;51.922;8.850;2022-11-20T05:51:18;6.90;;;5.07;;
53391;SDS011;41667;51.922;8.850;2022-11-20T05:53:43;9.90;;;5.90;;
53391;SDS011;41667;51.922;8.850;2022-11-20T05:56:12;8.27;;;5.60;;
53391;SDS011;41667;51.922;8.850;2022-11-20T05:58:37;6.50;;;5.13;;
53391;SDS011;41667;51.922;8.850;2022-11-20T06:01:07;8.40;;;4.85;;
53391;SDS011;41667;51.922;8.850;2022-11-20T06:03:33;5.75;;;4.32;;
53391;SDS011;41667;51.922;8.850;2022-11-20T06:05:58;7.03;;;5.37;;
53391;SDS011;41667;51.922;8.850;2022-11-20T06:08:24;8.98;;;4.72;;
53391;SDS011;41667;51.922;8.850;2022-11-20T06:10:49;10.80;;;6.00;;
53391;SDS011;41667;51.922;8.850;2022-11-20T06:13:14;8.13;;;5.28;;
53391;SDS011;41667;51.922;8.850;2022-11-20T06:15:39;8.17;;;5.37;;
53391;SDS011;41667;51.922;8.850;2022-11-20T06:18:04;9.98;;;6.32;;
53391;SDS011;41667;51.922;8.850;2022-11-20T06:20:29;8.00;;;6.07;;
53391;SDS011;41667;51.922;8.850;2022-11-20T06:22:54;7.40;;;5.90;;
53391;SDS011;41667;51.922;8.850;2022-11-20T06:25:20;11.85;;;7.20;;
53391;SDS011;41667;51.922;8.850;2022-11-20T06:27:45;8.83;;;7.40;;
53391;SDS011;41667;51.922;8.850;2022-11-20T06:30:10;6.45;;;5.00;;
53391;SDS011;41667;51.922;8.850;2022-11-20T06:32:36;10.43;;;6.30;;
53391;SDS011;41667;51.922;8.850;2022-11-20T06:35:01;8.63;;;5.80;;
53391;SDS011;41667;51.922;8.850;2022-11-20T06:37:26;11.80;;;7.60;;
53391;SDS011;41667;51.922;8.850;2022-11-20T06:39:51;10.68;;;7.10;;
53391;SDS011;41667;51.922;8.850;2022-11-20T06:42:16;14.13;;;6.75;;
53391;SDS011;41667;51.922;8.850;2022-11-20T06:44:41;14.00;;;7.28;;
53391;SDS011;41667;51.922;8.850;2022-11-20T06:47:06;11.93;;;7.05;;
53391;SDS011;41667;51.922;8.850;2022-11-20T06:49:32;15.77;;;8.95;;
53391;SDS011;41667;51.922;8.850;2022-11-20T06:51:59;9.85;;;7.20;;
53391;SDS011;41667;51.922;8.850;2022-11-20T06:54:24;14.10;;;7.60;;
53391;SDS011;41667;51.922;8.850;2022-11-20T06:56:49;16.95;;;8.55;;
53391;SDS011;41667;51.922;8.850;2022-11-20T06:59:14;14.65;;;9.05;;
53391;SDS011;41667;51.922;8.850;2022-11-20T07:01:39;12.95;;;7.95;;
53391;SDS011;41667;51.922;8.850;2022-11-20T07:04:04;11.25;;;7.43;;
53391;SDS011;41667;51.922;8.850;2022-11-20T07:06:30;11.47;;;7.37;;
53391;SDS011;41667;51.922;8.850;2022-11-20T07:08:55;12.77;;;7.00;;
53391;SDS011;41667;51.922;8.850;2022-11-20T07:11:20;15.90;;;7.67;;
53391;SDS011;41667;51.922;8.850;2022-11-20T07:13:45;14.85;;;8.65;;
53391;SDS011;41667;51.922;8.850;2022-11-20T07:16:10;10.80;;;6.93;;
53391;SDS011;41667;51.922;8.850;2022-11-20T07:18:36;10.80;;;6.87;;
53391;SDS011;41667;51.922;8.850;2022-11-20T07:21:01;14.57;;;7.20;;
53391;SDS011;41667;51.922;8.850;2022-11-20T07:23:27;10.93;;;7.75;;
53391;SDS011;41667;51.922;8.850;2022-11-20T07:25:52;9.93;;;7.32;;
53391;SDS011;41667;51.922;8.850;2022-11-20T07:28:17;13.13;;;7.82;;
53391;SDS011;41667;51.922;8.850;2022-11-20T07:30:42;14.00;;;7.45;;
53391;SDS011;41667;51.922;8.850;2022-11-20T07:33:07;9.25;;;6.35;;
53391;SDS011;41667;51.922;8.850;2022-11-20T07:35:33;11.07;;;7.25;;
53391;SDS011;41667;51.922;8.850;2022-11-20T07:37:58;14.53;;;8.67;;
53391;SDS011;41667;51.922;8.850;2022-11-20T07:40:23;15.43;;;6.70;;
53391;SDS011;41667;51.922;8.850;2022-11-20T07:42:49;9.13;;;6.57;;
53391;SDS011;41667;51.922;8.850;2022-11-20T07:45:15;13.48;;;8.10;;
53391;SDS011;41667;51.922;8.850;2022-11-20T07:47:40;14.20;;;7.57;;
53391;SDS011;41667;51.922;8.850;2022-11-20T07:50:05;10.80;;;6.97;;
53391;SDS011;41667;51.922;8.850;2022-11-20T07:52:30;10.00;;;6.25;;
53391;SDS011;41667;51.922;8.850;2022-11-20T07:54:55;13.38;;;6.18;;
53391;SDS011;41667;51.922;8.850;2022-11-20T07:57:20;13.25;;;7.07;;
53391;SDS011;41667;51.922;8.850;2022-11-20T07:59:46;11.27;;;7.32;;
53391;SDS011;41667;51.922;8.850;2022-11-20T08:02:11;11.50;;;6.85;;
53391;SDS011;41667;51.922;8.850;2022-11-20T08:04:36;13.13;;;8.70;;
53391;SDS011;41667;51.922;8.850;2022-11-20T08:07:01;16.23;;;8.43;;
53391;SDS011;41667;51.922;8.850;2022-11-20T08:09:27;17.77;;;10.50;;
53391;SDS011;41667;51.922;8.850;2022-11-20T08:11:52;9.10;;;7.03;;
53391;SDS011;41667;51.922;8.850;2022-11-20T08:14:36;14.90;;;7.40;;
53391;SDS011;41667;51.922;8.850;2022-11-20T08:17:01;13.93;;;7.25;;
53391;SDS011;41667;51.922;8.850;2022-11-20T08:19:26;16.13;;;10.02;;
53391;SDS011;41667;51.922;8.850;2022-11-20T08:21:52;17.88;;;11.07;;
53391;SDS011;41667;51.922;8.850;2022-11-20T08:24:17;19.07;;;10.13;;
53391;SDS011;41667;51.922;8.850;2022-11-20T08:26:42;19.55;;;9.60;;
53391;SDS011;41667;51.922;8.850;2022-11-20T08:29:07;18.77;;;11.03;;
53391;SDS011;41667;51.922;8.850;2022-11-20T08:31:32;21.30;;;9.70;;
53391;SDS011;41667;51.922;8.850;2022-11-20T08:33:57;16.73;;;9.83;;
53391;SDS011;41667;51.922;8.850;2022-11-20T08:36:23;19.33;;;11.30;;
53391;SDS011;41667;51.922;8.850;2022-11-20T08:38:49;16.50;;;10.18;;
53391;SDS011;41667;51.922;8.850;2022-11-20T08:41:14;21.38;;;10.85;;
53391;SDS011;41667;51.922;8.850;2022-11-20T08:43:52;21.90;;;12.57;;
53391;SDS011;41667;51.922;8.850;2022-11-20T08:46:17;18.33;;;11.20;;
53391;SDS011;41667;51.922;8.850;2022-11-20T08:48:42;23.50;;;12.63;;
53391;SDS011;41667;51.922;8.850;2022-11-20T08:51:08;26.80;;;14.13;;
53391;SDS011;41667;51.922;8.850;2022-11-20T08:53:33;23.13;;;11.15;;
53391;SDS011;41667;51.922;8.850;2022-11-20T08:55:58;16.52;;;10.68;;
53391;SDS011;41667;51.922;8.850;2022-11-20T08:58:24;24.33;;;11.53;;
53391;SDS011;41667;51.922;8.850;2022-11-20T09:00:49;18.33;;;10.07;;
53391;SDS011;41667;51.922;8.850;2022-11-20T09:03:14;19.97;;;11.33;;
53391;SDS011;41667;51.922;8.850;2022-11-20T09:05:39;18.57;;;10.27;;
53391;SDS011;41667;51.922;8.850;2022-11-20T09:08:04;24.17;;;12.43;;
53391;SDS011;41667;51.922;8.850;2022-11-20T09:10:30;25.30;;;12.13;;
53391;SDS011;41667;51.922;8.850;2022-11-20T09:12:55;23.77;;;11.60;;
53391;SDS011;41667;51.922;8.850;2022-11-20T09:15:20;19.33;;;10.93;;
53391;SDS011;41667;51.922;8.850;2022-11-20T09:17:56;21.45;;;9.57;;
53391;SDS011;41667;51.922;8.850;2022-11-20T09:20:21;16.35;;;9.10;;
53391;SDS011;41667;51.922;8.850;2022-11-20T09:22:46;12.32;;;8.23;;
53391;SDS011;41667;51.922;8.850;2022-11-20T09:25:12;19.05;;;10.02;;
53391;SDS011;41667;51.922;8.850;2022-11-20T09:27:37;22.20;;;10.70;;
53391;SDS011;41667;51.922;8.850;2022-11-20T09:30:02;18.17;;;10.32;;
53391;SDS011;41667;51.922;8.850;2022-11-20T09:32:28;20.30;;;11.10;;
53391;SDS011;41667;51.922;8.850;2022-11-20T09:34:53;15.40;;;9.52;;
53391;SDS011;41667;51.922;8.850;2022-11-20T09:37:18;16.77;;;9.43;;
53391;SDS011;41667;51.922;8.850;2022-11-20T09:39:43;16.37;;;9.67;;
53391;SDS011;41667;51.922;8.850;2022-11-20T09:47:32;18.88;;;9.00;;
53391;SDS011;41667;51.922;8.850;2022-11-20T09:50:14;14.68;;;8.35;;
53391;SDS011;41667;51.922;8.850;2022-11-20T09:52:48;15.18;;;7.72;;
53391;SDS011;41667;51.922;8.850;2022-11-20T09:55:16;14.90;;;8.32;;
53391;SDS011;41667;51.922;8.850;2022-11-20T09:57:42;15.88;;;8.57;;
53391;SDS011;41667;51.922;8.850;2022-11-20T10:00:09;14.07;;;7.80;;
53391;SDS011;41667;51.922;8.850;2022-11-20T10:07:51;14.55;;;8.23;;
53391;SDS011;41667;51.922;8.850;2022-11-20T10:10:31;12.65;;;6.97;;
53391;SDS011;41667;51.922;8.850;2022-11-20T10:20:44;10.98;;;6.25;;
53391;SDS011;41667;51.922;8.850;2022-11-20T10:26:04;16.02;;;7.15;;
53391;SDS011;41667;51.922;8.850;2022-11-20T10:31:33;10.30;;;5.75;;
53391;SDS011;41667;51.922;8.850;2022-11-20T10:34:00;12.23;;;6.03;;
53391;SDS011;41667;51.922;8.850;2022-11-20T10:36:28;8.90;;;5.40;;
53391;SDS011;41667;51.922;8.850;2022-11-20T10:38:54;7.80;;;5.50;;
53391;SDS011;41667;51.922;8.850;2022-11-20T10:41:38;8.57;;;5.07;;
53391;SDS011;41667;51.922;8.850;2022-11-20T10:44:05;9.50;;;5.50;;
53391;SDS011;41667;51.922;8.850;2022-11-20T10:46:36;9.07;;;4.80;;
53391;SDS011;41667;51.922;8.850;2022-11-20T10:49:02;7.43;;;5.25;;
53391;SDS011;41667;51.922;8.850;2022-11-20T10:54:10;6.07;;;3.95;;
53391;SDS011;41667;51.922;8.850;2022-11-20T10:59:32;4.40;;;3.53;;
53391;SDS011;41667;51.922;8.850;2022-11-20T11:02:00;7.60;;;3.85;;
53391;SDS011;41667;51.922;8.850;2022-11-20T11:06:54;6.50;;;4.28;;
53391;SDS011;41667;51.922;8.850;2022-11-20T11:09:25;5.47;;;2.97;;
53391;SDS011;41667;51.922;8.850;2022-11-20T11:11:52;6.43;;;4.37;;
53391;SDS011;41667;51.922;8.850;2022-11-20T11:14:18;5.63;;;3.07;;
53391;SDS011;41667;51.922;8.850;2022-11-20T11:16:50;5.28;;;3.72;;
53391;SDS011;41667;51.922;8.850;2022-11-20T11:19:16;4.80;;;3.10;;
53391;SDS011;41667;51.922;8.850;2022-11-20T11:21:51;3.40;;;2.88;;
53391;SDS011;41667;51.922;8.850;2022-11-20T11:24:22;5.55;;;3.30;;
53391;SDS011;41667;51.922;8.850;2022-11-20T11:27:10;3.90;;;2.63;;
53391;SDS011;41667;51.922;8.850;2022-11-20T11:29:35;4.82;;;2.95;;
53391;SDS011;41667;51.922;8.850;2022-11-20T11:34:29;5.43;;;3.03;;
53391;SDS011;41667;51.922;8.850;2022-11-20T11:36:57;6.40;;;3.13;;
53391;SDS011;41667;51.922;8.850;2022-11-20T11:39:22;5.00;;;3.65;;
53391;SDS011;41667;51.922;8.850;2022-11-20T11:41:48;3.30;;;3.00;;
53391;SDS011;41667;51.922;8.850;2022-11-20T11:44:17;5.25;;;3.42;;
53391;SDS011;41667;51.922;8.850;2022-11-20T11:47:01;5.80;;;4.65;;
53391;SDS011;41667;51.922;8.850;2022-11-20T11:49:28;8.77;;;3.22;;
53391;SDS011;41667;51.922;8.850;2022-11-20T11:52:13;8.10;;;4.07;;
53391;SDS011;41667;51.922;8.850;2022-11-20T11:57:12;4.65;;;3.85;;
53391;SDS011;41667;51.922;8.850;2022-11-20T12:02:29;7.03;;;4.15;;
53391;SDS011;41667;51.922;8.850;2022-11-20T12:04:57;6.90;;;3.80;;
53391;SDS011;41667;51.922;8.850;2022-11-20T12:07:35;6.15;;;4.28;;
53391;SDS011;41667;51.922;8.850;2022-11-20T12:10:02;6.72;;;4.03;;
53391;SDS011;41667;51.922;8.850;2022-11-20T12:12:30;6.65;;;4.43;;
53391;SDS011;41667;51.922;8.850;2022-11-20T12:14:56;5.38;;;4.20;;
53391;SDS011;41667;51.922;8.850;2022-11-20T12:17:22;9.50;;;4.88;;
53391;SDS011;41667;51.922;8.850;2022-11-20T12:19:47;7.07;;;3.55;;
53391;SDS011;41667;51.922;8.850;2022-11-20T12:38:11;11.73;;;5.95;;
53391;SDS011;41667;51.922;8.850;2022-11-20T12:40:46;7.38;;;4.93;;
53391;SDS011;41667;51.922;8.850;2022-11-20T12:44:01;7.97;;;4.57;;
53391;SDS011;41667;51.922;8.850;2022-11-20T12:54:08;10.40;;;5.35;;
53391;SDS011;41667;51.922;8.850;2022-11-20T13:01:45;9.97;;;6.53;;
53391;SDS011;41667;51.922;8.850;2022-11-20T13:04:29;11.20;;;5.32;;
53391;SDS011;41667;51.922;8.850;2022-11-20T13:06:58;9.90;;;5.53;;
53391;SDS011;41667;51.922;8.850;2022-11-20T13:09:23;13.30;;;4.60;;
53391;SDS011;41667;51.922;8.850;2022-11-20T13:11:51;9.30;;;5.93;;
53391;SDS011;41667;51.922;8.850;2022-11-20T13:19:38;12.15;;;6.68;;
53391;SDS011;41667;51.922;8.850;2022-11-20T13:22:10;12.60;;;6.43;;
53391;SDS011;41667;51.922;8.850;2022-11-20T13:24:35;11.17;;;6.00;;
53391;SDS011;41667;51.922;8.850;2022-11-20T13:29:25;12.18;;;6.50;;
53391;SDS011;41667;51.922;8.850;2022-11-20T13:31:51;9.18;;;6.45;;
53391;SDS011;41667;51.922;8.850;2022-11-20T13:34:26;10.20;;;6.53;;
53391;SDS011;41667;51.922;8.850;2022-11-20T13:36:53;8.57;;;4.28;;
53391;SDS011;41667;51.922;8.850;2022-11-20T13:39:26;10.57;;;7.30;;
53391;SDS011;41667;51.922;8.850;2022-11-20T13:42:01;9.68;;;6.15;;
53391;SDS011;41667;51.922;8.850;2022-11-20T13:46:57;10.52;;;6.97;;
53391;SDS011;41667;51.922;8.850;2022-11-20T13:49:27;14.65;;;7.25;;
53391;SDS011;41667;51.922;8.850;2022-11-20T13:51:57;11.60;;;6.28;;
53391;SDS011;41667;51.922;8.850;2022-11-20T13:54:31;12.27;;;7.00;;
53391;SDS011;41667;51.922;8.850;2022-11-20T13:57:05;13.43;;;6.63;;
53391;SDS011;41667;51.922;8.850;2022-11-20T13:59:51;9.88;;;5.35;;
53391;SDS011;41667;51.922;8.850;2022-11-20T14:02:20;9.38;;;5.88;;
53391;SDS011;41667;51.922;8.850;2022-11-20T14:04:47;14.32;;;8.07;;
53391;SDS011;41667;51.922;8.850;2022-11-20T14:07:13;11.90;;;6.25;;
53391;SDS011;41667;51.922;8.850;2022-11-20T14:09:39;10.10;;;5.93;;
53391;SDS011;41667;51.922;8.850;2022-11-20T14:12:15;12.20;;;6.97;;
53391;SDS011;41667;51.922;8.850;2022-11-20T14:14:48;10.30;;;6.45;;
53391;SDS011;41667;51.922;8.850;2022-11-20T14:17:18;10.85;;;5.78;;
53391;SDS011;41667;51.922;8.850;2022-11-20T14:19:43;13.23;;;6.32;;
53391;SDS011;41667;51.922;8.850;2022-11-20T14:22:22;11.05;;;5.45;;
53391;SDS011;41667;51.922;8.850;2022-11-20T14:24:49;7.40;;;5.18;;
53391;SDS011;41667;51.922;8.850;2022-11-20T14:27:15;9.90;;;5.80;;
53391;SDS011;41667;51.922;8.850;2022-11-20T14:29:41;6.68;;;4.22;;
53391;SDS011;41667;51.922;8.850;2022-11-20T14:32:08;11.80;;;5.88;;
53391;SDS011;41667;51.922;8.850;2022-11-20T14:34:35;7.45;;;5.22;;
53391;SDS011;41667;51.922;8.850;2022-11-20T14:37:03;10.65;;;6.40;;
53391;SDS011;41667;51.922;8.850;2022-11-20T14:39:33;8.57;;;5.45;;
53391;SDS011;41667;51.922;8.850;2022-11-20T14:41:59;9.07;;;5.47;;
53391;SDS011;41667;51.922;8.850;2022-11-20T14:44:27;10.45;;;5.55;;
53391;SDS011;41667;51.922;8.850;2022-11-20T14:46:54;11.82;;;6.85;;
53391;SDS011;41667;51.922;8.850;2022-11-20T14:49:20;7.50;;;5.15;;
53391;SDS011;41667;51.922;8.850;2022-11-20T14:51:45;9.32;;;5.63;;
53391;SDS011;41667;51.922;8.850;2022-11-20T14:54:12;7.68;;;3.90;;
53391;SDS011;41667;51.922;8.850;2022-11-20T14:56:38;10.10;;;5.15;;
53391;SDS011;41667;51.922;8.850;2022-11-20T14:59:04;11.37;;;5.70;;
53391;SDS011;41667;51.922;8.850;2022-11-20T15:01:30;10.93;;;5.80;;
53391;SDS011;41667;51.922;8.850;2022-11-20T15:03:59;10.23;;;5.28;;
53391;SDS011;41667;51.922;8.850;2022-11-20T15:06:25;11.95;;;6.07;;
53391;SDS011;41667;51.922;8.850;2022-11-20T15:08:51;9.45;;;6.40;;
53391;SDS011;41667;51.922;8.850;2022-11-20T15:11:22;12.40;;;6.75;;
53391;SDS011;41667;51.922;8.850;2022-11-20T15:13:50;8.43;;;5.28;;
53391;SDS011;41667;51.922;8.850;2022-11-20T15:16:17;10.55;;;5.85;;
53391;SDS011;41667;51.922;8.850;2022-11-20T15:18:43;13.00;;;6.35;;
53391;SDS011;41667;51.922;8.850;2022-11-20T15:21:12;9.53;;;5.93;;
53391;SDS011;41667;51.922;8.850;2022-11-20T15:23:38;12.07;;;7.35;;
53391;SDS011;41667;51.922;8.850;2022-11-20T15:26:06;11.07;;;6.70;;
53391;SDS011;41667;51.922;8.850;2022-11-20T15:28:33;11.38;;;5.70;;
53391;SDS011;41667;51.922;8.850;2022-11-20T15:30:59;11.20;;;6.45;;
53391;SDS011;41667;51.922;8.850;2022-11-20T15:33:25;9.25;;;6.00;;
53391;SDS011;41667;51.922;8.850;2022-11-20T15:35:50;10.50;;;6.27;;
53391;SDS011;41667;51.922;8.850;2022-11-20T15:38:15;11.05;;;6.60;;
53391;SDS011;41667;51.922;8.850;2022-11-20T15:40:40;13.23;;;8.93;;
53391;SDS011;41667;51.922;8.850;2022-11-20T15:43:06;13.85;;;8.20;;
53391;SDS011;41667;51.922;8.850;2022-11-20T15:48:00;19.80;;;8.38;;
53391;SDS011;41667;51.922;8.850;2022-11-20T15:50:27;49.88;;;30.15;;
53391;SDS011;41667;51.922;8.850;2022-11-20T15:52:54;40.25;;;21.52;;
53391;SDS011;41667;51.922;8.850;2022-11-20T15:55:19;22.05;;;12.40;;
53391;SDS011;41667;51.922;8.850;2022-11-20T15:57:44;15.77;;;9.38;;
53391;SDS011;41667;51.922;8.850;2022-11-20T16:00:09;16.60;;;9.45;;
53391;SDS011;41667;51.922;8.850;2022-11-20T16:02:34;14.25;;;9.20;;
53391;SDS011;41667;51.922;8.850;2022-11-20T16:05:00;14.48;;;8.68;;